Portada
METAR-TAF:

METAR-TAF

Aeropuertos :

Aeropuerto Internacional de Xi'an-Xianyang

Xi'an, China

latitud: 34-26N, longitud: 108-45E, altitud: 479 m

Observación

El informe se hizo hace 52 minutos, a las 13:00 UTC
Viento 2 kt del oeste
Temperatura 0°C
Humedad 59%
Presión 1022 hPa
Visibilidad: 4000 m
calima

METAR: ZLXY 181300Z 28001MPS 4000 HZ NSC 00/M07 Q1022 NOSIG

Hora: 21:52 (13:52 UTC)

Pronóstico

El informe se hizo hace 4 horas y 50 minutos, a las 09:02 UTC
Pronóstico válido del 18 a las 12 UTC al 19 a las 12 UTC
Viento 6 kt del oeste-suroeste
Visibilidad: 3000 m
calima

TAF: ZLXY 180902Z 1812/1912 24003MPS 3000 HZ NSC TX06/1907Z TNM06/23Z

Observaciones y pronósticos meteorológicos de más de 4000 aeropuertos (mensajes METAR y TAF).

Los puntos amarillos y rojos representan las estaciones disponibles.

Ponga el ratón en el punto deseado para ver el nombre de la estación.

Haga clic para ver las observaciones y los pronósticos meteorológicos.

Para cambiar el mapa : haga clic en los botones verdes con una cruz de color negro para hacer un zoom, en el botón verde con un guión para alejar o en las flechas verdes para mapas adyacentes.


METAR-TAF: